Time;durP1;ratioP1;P1;durP2;ratioP2;P2;SDS_P1;SDS_P2;PMS_P1;PMS_P2;Temp;Humidity;BMP_temperature;BMP_pressure;BME280_temperature;BME280_humidity;BME280_pressure;Samples;Min_cycle;Max_cycle;Signal;HPM_P1;HPM_P2
2021/09/05 00:00:33;;;;;;;17.58;11.80;;;15.60;99.90;;;;;;4897879;29;37907;-80
2021/09/05 00:02:59;;;;;;;20.60;11.50;;;15.60;99.90;;;;;;4899338;28;39014;-78
2021/09/05 00:05:25;;;;;;;20.08;11.35;;;15.50;99.90;;;;;;4896857;29;37136;-78
2021/09/05 00:07:52;;;;;;;18.38;11.80;;;15.50;99.90;;;;;;4898150;28;38827;-78
2021/09/05 00:10:18;;;;;;;18.27;11.18;;;15.50;99.90;;;;;;4900767;29;37449;-79
2021/09/05 00:12:44;;;;;;;16.85;11.27;;;15.40;99.90;;;;;;4905364;28;39604;-78
2021/09/05 00:15:11;;;;;;;18.23;11.75;;;15.40;99.90;;;;;;4901418;29;38164;-79
2021/09/05 00:17:38;;;;;;;17.05;11.18;;;15.40;99.90;;;;;;4900058;29;39110;-79
2021/09/05 00:20:05;;;;;;;18.05;11.43;;;15.30;99.90;;;;;;4900314;29;35370;-79
2021/09/05 00:22:32;;;;;;;19.73;11.82;;;15.30;99.90;;;;;;4888556;29;47294;-79
2021/09/05 00:24:58;;;;;;;19.08;11.68;;;15.30;99.90;;;;;;4890621;29;38947;-79
2021/09/05 00:27:24;;;;;;;17.35;11.55;;;15.30;99.90;;;;;;4900696;29;38018;-78
2021/09/05 00:29:50;;;;;;;20.40;11.27;;;15.30;99.90;;;;;;4900227;29;37927;-78
2021/09/05 00:32:16;;;;;;;20.08;11.50;;;15.20;99.90;;;;;;4897586;29;39919;-79
2021/09/05 00:34:42;;;;;;;17.85;11.43;;;15.20;99.90;;;;;;4897315;29;38884;-78
2021/09/05 00:37:08;;;;;;;19.92;11.23;;;15.20;99.90;;;;;;4898028;29;37946;-79
2021/09/05 00:39:35;;;;;;;21.73;11.88;;;15.10;99.90;;;;;;4899282;29;37749;-79
2021/09/05 00:42:01;;;;;;;18.40;11.75;;;15.10;99.90;;;;;;4888271;29;39294;-78
2021/09/05 00:44:27;;;;;;;18.92;11.93;;;15.10;99.90;;;;;;4896349;29;48614;-78
2021/09/05 00:46:53;;;;;;;19.65;11.68;;;15.00;99.90;;;;;;4898116;28;38814;-79
2021/09/05 00:49:19;;;;;;;17.63;11.65;;;15.00;99.90;;;;;;4899574;29;38201;-78
2021/09/05 00:51:47;;;;;;;18.88;11.65;;;15.00;99.90;;;;;;4896947;29;40510;-78
2021/09/05 00:54:14;;;;;;;16.52;11.20;;;15.00;99.90;;;;;;4895824;29;38191;-79
2021/09/05 00:56:44;;;;;;;20.10;11.63;;;15.00;99.90;;;;;;4897852;29;38621;-78
2021/09/05 00:59:16;;;;;;;21.52;12.95;;;14.90;99.90;;;;;;4900017;29;37009;-79
2021/09/05 01:01:43;;;;;;;19.77;11.25;;;14.90;99.90;;;;;;4902749;29;38462;-78
2021/09/05 01:04:09;;;;;;;18.10;11.35;;;14.90;99.90;;;;;;4897065;29;38869;-79
2021/09/05 01:06:39;;;;;;;16.98;11.70;;;14.80;99.90;;;;;;4897780;29;38234;-79
2021/09/05 01:09:06;;;;;;;19.65;11.82;;;14.90;99.90;;;;;;4898951;29;38164;-79
2021/09/05 01:11:33;;;;;;;17.33;11.95;;;14.80;99.90;;;;;;4895482;28;38734;-79
2021/09/05 01:14:01;;;;;;;20.75;11.45;;;14.80;99.90;;;;;;4902279;29;38614;-78
2021/09/05 01:16:33;;;;;;;17.92;12.68;;;14.80;99.90;;;;;;4899264;28;48939;-78
2021/09/05 01:19:20;;;;;;;22.83;12.38;;;14.70;99.90;;;;;;4901989;29;38672;-78
2021/09/05 01:21:49;;;;;;;20.45;12.30;;;14.70;99.90;;;;;;4903801;28;48748;-79
2021/09/05 01:24:16;;;;;;;18.42;11.75;;;14.70;99.90;;;;;;4896581;29;38633;-78
2021/09/05 01:26:45;;;;;;;18.80;12.57;;;14.60;99.90;;;;;;4902019;29;37989;-79
2021/09/05 01:29:13;;;;;;;18.75;12.23;;;14.60;99.90;;;;;;4900593;29;37565;-78
2021/09/05 01:31:43;;;;;;;19.45;12.88;;;14.60;99.90;;;;;;4881449;29;39515;-78
2021/09/05 01:34:11;;;;;;;20.70;12.25;;;14.60;99.90;;;;;;4898770;29;39338;-78
2021/09/05 01:36:39;;;;;;;21.88;12.82;;;14.50;99.90;;;;;;4903740;29;37802;-78
2021/09/05 01:39:07;;;;;;;27.08;13.05;;;14.50;99.90;;;;;;4895837;29;39259;-78
2021/09/05 01:41:33;;;;;;;28.27;12.20;;;14.50;99.90;;;;;;4897450;29;38812;-78
2021/09/05 01:44:01;;;;;;;21.15;12.85;;;14.50;99.90;;;;;;4901024;29;38423;-78
2021/09/05 01:46:28;;;;;;;21.10;12.32;;;14.50;99.90;;;;;;4895115;29;48457;-78
2021/09/05 01:48:54;;;;;;;21.48;12.88;;;14.50;99.90;;;;;;4903504;29;36195;-78
2021/09/05 01:51:20;;;;;;;22.48;13.10;;;14.50;99.90;;;;;;4907188;29;38748;-79
2021/09/05 01:53:46;;;;;;;21.52;13.65;;;14.50;99.90;;;;;;4904627;29;38405;-78
2021/09/05 01:56:12;;;;;;;21.45;14.02;;;14.50;99.90;;;;;;4896024;29;38815;-78
2021/09/05 01:58:39;;;;;;;20.65;12.35;;;14.50;99.90;;;;;;4904970;29;38267;-78
2021/09/05 02:01:05;;;;;;;24.08;14.60;;;14.50;99.90;;;;;;4893051;29;39254;-78
2021/09/05 02:03:31;;;;;;;20.80;12.60;;;14.50;99.90;;;;;;4903426;29;38311;-78
2021/09/05 02:05:57;;;;;;;21.98;13.63;;;14.40;99.90;;;;;;4884888;29;38283;-78
2021/09/05 02:08:23;;;;;;;21.00;13.75;;;14.40;99.90;;;;;;4900310;28;37984;-78
2021/09/05 02:10:49;;;;;;;23.42;13.55;;;14.40;99.90;;;;;;4880824;29;39016;-78
2021/09/05 02:13:15;;;;;;;21.85;12.60;;;14.40;99.90;;;;;;4902177;29;38457;-78
2021/09/05 02:15:41;;;;;;;21.42;13.73;;;14.40;99.90;;;;;;4887930;29;38519;-78
2021/09/05 02:18:08;;;;;;;20.95;13.27;;;14.30;99.90;;;;;;4904224;29;37489;-78
2021/09/05 02:20:34;;;;;;;20.15;12.50;;;14.30;99.90;;;;;;4898089;29;38834;-78
2021/09/05 02:23:00;;;;;;;23.05;12.90;;;14.30;99.90;;;;;;4899634;28;39415;-78
2021/09/05 02:25:26;;;;;;;24.60;14.38;;;14.20;99.90;;;;;;4901738;29;38758;-78
2021/09/05 02:27:52;;;;;;;25.15;13.70;;;14.20;99.90;;;;;;4888128;29;37174;-78
2021/09/05 02:30:18;;;;;;;21.10;13.70;;;14.10;99.90;;;;;;4900661;29;37681;-79
2021/09/05 02:32:44;;;;;;;20.10;13.13;;;14.10;99.90;;;;;;4902742;29;39160;-78
2021/09/05 02:35:11;;;;;;;23.75;14.35;;;14.10;99.90;;;;;;4899636;29;37874;-78
2021/09/05 02:37:38;;;;;;;19.45;13.15;;;14.00;99.90;;;;;;4902062;29;39250;-78
2021/09/05 02:40:06;;;;;;;22.00;14.00;;;14.00;99.90;;;;;;4900054;29;36962;-76
2021/09/05 02:42:33;;;;;;;21.45;14.95;;;14.00;99.90;;;;;;4892236;29;39177;-78
2021/09/05 02:45:05;;;;;;;25.00;15.75;;;14.00;99.90;;;;;;4896922;29;38156;-78
2021/09/05 02:47:32;;;;;;;23.93;14.97;;;14.00;99.90;;;;;;4899824;29;46886;-78
2021/09/05 02:49:58;;;;;;;24.38;14.68;;;14.00;99.90;;;;;;4899258;29;42711;-78
2021/09/05 02:52:24;;;;;;;22.85;14.38;;;13.90;99.90;;;;;;4901762;29;39614;-78
2021/09/05 02:54:50;;;;;;;24.95;14.98;;;13.90;99.90;;;;;;4911970;28;37587;-78
2021/09/05 02:57:16;;;;;;;24.17;14.60;;;13.90;99.90;;;;;;4895283;29;38001;-78
2021/09/05 02:59:42;;;;;;;26.95;15.60;;;13.90;99.90;;;;;;4900440;29;39142;-79
2021/09/05 03:02:08;;;;;;;25.55;14.35;;;13.90;99.90;;;;;;4898144;29;38895;-78
2021/09/05 03:04:34;;;;;;;21.65;14.20;;;13.90;99.90;;;;;;4897324;29;37940;-78
2021/09/05 03:07:01;;;;;;;23.92;15.43;;;13.90;99.90;;;;;;4891670;29;37846;-78
2021/09/05 03:09:27;;;;;;;24.48;15.75;;;13.90;99.90;;;;;;4905444;29;48720;-78
2021/09/05 03:11:53;;;;;;;22.65;14.07;;;13.80;99.90;;;;;;4892795;28;37143;-79
2021/09/05 03:14:19;;;;;;;29.30;14.95;;;13.80;99.90;;;;;;4896126;29;38921;-78
2021/09/05 03:16:45;;;;;;;22.50;15.00;;;13.80;99.90;;;;;;4896833;29;39635;-78
2021/09/05 03:19:11;;;;;;;25.58;14.82;;;13.80;99.90;;;;;;4887490;29;37929;-78
2021/09/05 03:21:39;;;;;;;27.23;14.38;;;13.80;99.90;;;;;;4914497;28;37651;-78
2021/09/05 03:24:06;;;;;;;25.85;14.60;;;13.80;99.90;;;;;;4899482;29;39306;-78
2021/09/05 03:26:33;;;;;;;23.35;14.18;;;13.80;99.90;;;;;;4899791;29;36145;-78
2021/09/05 03:29:00;;;;;;;21.00;13.82;;;13.80;99.90;;;;;;4903060;29;39041;-78
2021/09/05 03:31:26;;;;;;;28.10;14.15;;;13.80;99.90;;;;;;4916120;28;38690;-78
2021/09/05 03:33:52;;;;;;;27.05;16.27;;;13.80;99.90;;;;;;4902078;29;40119;-79
2021/09/05 03:36:18;;;;;;;26.25;14.75;;;13.80;99.90;;;;;;4899920;28;37927;-78
2021/09/05 03:38:44;;;;;;;33.25;15.90;;;13.80;99.90;;;;;;4900554;29;39186;-78
2021/09/05 03:41:11;;;;;;;22.80;14.70;;;13.80;99.90;;;;;;4888921;28;39079;-77
2021/09/05 03:43:38;;;;;;;26.23;15.25;;;13.80;99.90;;;;;;4899985;29;38820;-77
2021/09/05 03:46:04;;;;;;;25.42;14.93;;;13.80;99.90;;;;;;4896833;29;37873;-78
2021/09/05 03:48:30;;;;;;;24.95;15.77;;;13.70;99.90;;;;;;4900177;29;40558;-78
2021/09/05 03:50:56;;;;;;;28.77;15.65;;;13.70;99.90;;;;;;4900659;29;38676;-78
2021/09/05 03:53:22;;;;;;;28.30;14.90;;;13.70;99.90;;;;;;4887301;29;37290;-78
2021/09/05 03:55:48;;;;;;;24.98;15.32;;;13.70;99.90;;;;;;4899901;28;37732;-78
2021/09/05 03:58:15;;;;;;;28.35;15.32;;;13.70;99.90;;;;;;4897852;29;39357;-78
2021/09/05 04:00:42;;;;;;;25.60;15.05;;;13.70;99.90;;;;;;4897639;29;40021;-78
2021/09/05 04:03:09;;;;;;;27.52;16.38;;;13.70;99.90;;;;;;4902292;29;40520;-78
2021/09/05 04:05:35;;;;;;;27.42;14.88;;;13.60;99.90;;;;;;4900301;28;38192;-78
2021/09/05 04:08:14;;;;;;;22.45;15.43;;;13.60;99.90;;;;;;4898659;29;39913;-76
2021/09/05 04:10:40;;;;;;;30.85;16.98;;;13.60;99.90;;;;;;4898075;28;38218;-78
2021/09/05 04:13:08;;;;;;;26.55;16.13;;;13.50;99.90;;;;;;4897814;28;38065;-78
2021/09/05 04:15:34;;;;;;;27.73;16.13;;;13.50;99.90;;;;;;4899264;29;37621;-78
2021/09/05 04:18:00;;;;;;;24.25;14.88;;;13.50;99.90;;;;;;4902137;29;40386;-78
2021/09/05 04:20:27;;;;;;;31.08;17.63;;;13.50;99.90;;;;;;4896441;29;39219;-78
2021/09/05 04:22:53;;;;;;;24.67;15.63;;;13.50;99.90;;;;;;4884008;29;38196;-78
2021/09/05 04:25:19;;;;;;;28.13;16.48;;;13.50;99.90;;;;;;4900902;28;37681;-78
2021/09/05 04:27:45;;;;;;;27.08;15.25;;;13.50;99.90;;;;;;4898183;29;40439;-78
2021/09/05 04:30:12;;;;;;;30.75;16.33;;;13.50;99.90;;;;;;4885621;28;37714;-78
2021/09/05 04:32:40;;;;;;;32.55;16.52;;;13.50;99.90;;;;;;4900622;29;36645;-78
2021/09/05 04:35:06;;;;;;;29.02;16.25;;;13.50;99.90;;;;;;4896272;28;35958;-78
2021/09/05 04:37:33;;;;;;;27.92;16.17;;;13.50;99.90;;;;;;4898175;29;40144;-78
2021/09/05 04:39:59;;;;;;;27.30;16.27;;;13.40;99.90;;;;;;4896005;29;37286;-78
2021/09/05 04:42:25;;;;;;;26.98;16.00;;;13.40;99.90;;;;;;4908917;28;38652;-78
2021/09/05 04:44:54;;;;;;;21.25;14.77;;;13.40;99.90;;;;;;4895084;29;38412;-78
2021/09/05 04:47:20;;;;;;;28.42;15.77;;;13.30;99.90;;;;;;4898223;29;38040;-78
2021/09/05 04:49:47;;;;;;;25.17;15.43;;;13.30;99.90;;;;;;4899523;29;38947;-78
2021/09/05 04:52:13;;;;;;;23.17;14.55;;;13.30;99.90;;;;;;4890877;29;36522;-78
2021/09/05 04:54:39;;;;;;;26.20;15.60;;;13.20;99.90;;;;;;4898270;29;37815;-78
2021/09/05 04:57:06;;;;;;;23.73;14.85;;;13.20;99.90;;;;;;4894837;29;39523;-78
2021/09/05 04:59:32;;;;;;;29.20;15.43;;;13.10;99.90;;;;;;4895164;29;38839;-78
2021/09/05 05:01:58;;;;;;;24.65;15.80;;;13.10;99.90;;;;;;4895801;29;38380;-78
2021/09/05 05:04:24;;;;;;;27.75;17.10;;;13.10;99.90;;;;;;4898855;29;37989;-78
2021/09/05 05:06:50;;;;;;;28.33;15.77;;;13.10;99.90;;;;;;4896371;28;38523;-78
2021/09/05 05:09:17;;;;;;;26.55;15.70;;;13.10;99.90;;;;;;4900551;29;37375;-78
2021/09/05 05:11:44;;;;;;;23.45;14.93;;;13.10;99.90;;;;;;4900740;28;37489;-78
2021/09/05 05:14:11;;;;;;;25.10;14.23;;;13.10;99.90;;;;;;4899880;29;37898;-78
2021/09/05 05:16:37;;;;;;;25.00;14.57;;;13.10;99.90;;;;;;4897876;29;38680;-78
2021/09/05 05:19:03;;;;;;;23.25;14.38;;;13.10;99.90;;;;;;4891873;29;40044;-78
2021/09/05 05:21:30;;;;;;;27.38;15.65;;;13.20;99.90;;;;;;4896340;29;39691;-78
2021/09/05 05:23:58;;;;;;;21.63;14.07;;;13.20;99.90;;;;;;4881225;29;37893;-78
2021/09/05 05:26:26;;;;;;;27.52;15.07;;;13.20;99.90;;;;;;4880863;29;39064;-78
2021/09/05 05:28:53;;;;;;;28.98;15.30;;;13.20;99.90;;;;;;4892069;29;38200;-79
2021/09/05 05:31:20;;;;;;;22.17;14.35;;;13.20;99.90;;;;;;4884286;29;37045;-78
2021/09/05 05:33:46;;;;;;;23.15;13.70;;;13.20;99.90;;;;;;4896850;29;36570;-78
2021/09/05 05:36:12;;;;;;;21.67;14.65;;;13.20;99.90;;;;;;4895078;29;37861;-78
2021/09/05 05:38:40;;;;;;;23.92;14.25;;;13.20;99.90;;;;;;4892024;29;38426;-79
2021/09/05 05:41:06;;;;;;;27.25;13.77;;;13.20;99.90;;;;;;4893115;29;37728;-79
2021/09/05 05:43:36;;;;;;;22.92;13.68;;;13.30;99.90;;;;;;4893947;29;38185;-78
2021/09/05 05:46:03;;;;;;;25.98;14.30;;;13.30;99.90;;;;;;4892285;29;38790;-77
2021/09/05 05:48:29;;;;;;;23.08;14.88;;;13.30;99.90;;;;;;4892365;29;39538;-78
2021/09/05 05:50:57;;;;;;;25.98;14.18;;;13.40;99.90;;;;;;4896099;29;36808;-78
2021/09/05 05:53:23;;;;;;;26.42;13.52;;;13.40;99.90;;;;;;4892044;29;36527;-78
2021/09/05 05:55:49;;;;;;;22.27;14.18;;;13.40;99.90;;;;;;4893744;28;38535;-78
2021/09/05 05:58:15;;;;;;;20.52;12.45;;;13.40;99.90;;;;;;4892564;29;37012;-78
2021/09/05 06:00:42;;;;;;;23.38;14.27;;;13.50;99.90;;;;;;4883272;29;38201;-78
2021/09/05 06:03:09;;;;;;;20.17;12.98;;;13.60;99.90;;;;;;4877181;29;37805;-78
2021/09/05 06:05:35;;;;;;;23.80;12.82;;;13.60;99.90;;;;;;4892212;29;37286;-78
2021/09/05 06:08:02;;;;;;;23.02;13.02;;;13.60;99.90;;;;;;4890756;28;38301;-77
2021/09/05 06:10:29;;;;;;;23.58;13.15;;;13.60;99.90;;;;;;4901624;29;37999;-78
2021/09/05 06:12:55;;;;;;;25.05;12.60;;;13.60;99.90;;;;;;4886909;28;38394;-78
2021/09/05 06:15:21;;;;;;;28.13;15.25;;;13.70;99.90;;;;;;4891976;29;39736;-78
2021/09/05 06:17:47;;;;;;;25.13;13.02;;;13.80;99.90;;;;;;4900148;29;39075;-78
2021/09/05 06:20:14;;;;;;;21.63;12.50;;;13.80;99.90;;;;;;4898581;28;38533;-78
2021/09/05 06:22:40;;;;;;;22.65;12.75;;;13.80;99.90;;;;;;4895918;29;38117;-78
2021/09/05 06:25:06;;;;;;;27.48;14.00;;;13.90;99.90;;;;;;4913292;28;39255;-77
2021/09/05 06:27:32;;;;;;;19.30;12.48;;;13.90;99.90;;;;;;4898334;29;38327;-78
2021/09/05 06:30:00;;;;;;;23.90;12.27;;;14.00;99.90;;;;;;4901314;29;37540;-78
2021/09/05 06:32:27;;;;;;;20.02;11.75;;;14.10;99.90;;;;;;4907248;28;38344;-78
2021/09/05 06:34:54;;;;;;;19.88;12.23;;;14.10;99.90;;;;;;4895715;29;37315;-78
2021/09/05 06:37:20;;;;;;;19.02;12.20;;;14.20;99.90;;;;;;4917395;28;38901;-78
2021/09/05 06:39:46;;;;;;;19.50;11.85;;;14.30;99.90;;;;;;4899060;29;37702;-78
2021/09/05 06:42:12;;;;;;;20.15;11.75;;;14.30;99.90;;;;;;4901191;28;37527;-78
2021/09/05 06:44:39;;;;;;;19.10;11.52;;;14.30;99.90;;;;;;4905867;29;39642;-78
2021/09/05 06:47:06;;;;;;;19.17;12.00;;;14.40;99.90;;;;;;4901079;29;38816;-78
2021/09/05 06:49:32;;;;;;;17.42;12.07;;;14.50;99.90;;;;;;4903060;29;39173;-78
2021/09/05 06:51:58;;;;;;;20.00;11.95;;;14.50;99.90;;;;;;4904764;29;38201;-78
2021/09/05 06:54:24;;;;;;;16.92;11.05;;;14.60;99.90;;;;;;4901867;29;39899;-78
2021/09/05 06:56:50;;;;;;;17.73;10.50;;;14.60;99.90;;;;;;4904220;29;36508;-78
2021/09/05 06:59:17;;;;;;;19.05;10.63;;;14.70;99.90;;;;;;4908444;29;38916;-77
2021/09/05 07:01:43;;;;;;;18.02;12.05;;;14.90;99.90;;;;;;4907022;29;38325;-78
2021/09/05 07:04:09;;;;;;;19.63;11.18;;;15.10;99.90;;;;;;4904681;29;40647;-78
2021/09/05 07:06:35;;;;;;;19.50;11.60;;;15.10;99.90;;;;;;4912858;29;39355;-78
2021/09/05 07:09:01;;;;;;;18.08;11.55;;;15.10;99.90;;;;;;4904123;29;38212;-78
2021/09/05 07:11:27;;;;;;;18.27;11.52;;;15.10;99.90;;;;;;4900378;29;47081;-78
2021/09/05 07:13:53;;;;;;;16.58;11.80;;;15.10;99.90;;;;;;4908059;29;39050;-78
2021/09/05 07:16:19;;;;;;;19.17;11.73;;;15.10;99.90;;;;;;4902817;29;37334;-77
2021/09/05 07:18:45;;;;;;;20.80;11.50;;;15.20;99.90;;;;;;4908339;29;38604;-78
2021/09/05 07:21:11;;;;;;;22.17;12.07;;;15.20;99.90;;;;;;4903441;29;36979;-78
2021/09/05 07:23:38;;;;;;;17.95;11.75;;;15.30;99.90;;;;;;4907911;29;39346;-78
2021/09/05 07:26:04;;;;;;;17.83;10.27;;;15.40;99.90;;;;;;4901284;28;37816;-79
2021/09/05 07:28:32;;;;;;;17.02;11.60;;;15.40;99.90;;;;;;4905951;29;38195;-80
2021/09/05 07:30:59;;;;;;;19.67;11.00;;;15.50;99.90;;;;;;4893948;29;36369;-78
2021/09/05 07:33:26;;;;;;;22.40;10.93;;;15.70;99.90;;;;;;4903539;29;39741;-78
2021/09/05 07:35:52;;;;;;;21.23;11.07;;;15.80;99.90;;;;;;4903538;29;37302;-78
2021/09/05 07:38:19;;;;;;;16.42;9.60;;;16.10;99.90;;;;;;4908924;28;38777;-78
2021/09/05 07:40:45;;;;;;;17.52;10.02;;;16.30;99.90;;;;;;4890433;29;38628;-78
2021/09/05 07:43:12;;;;;;;17.75;11.02;;;16.50;99.90;;;;;;4909589;29;38862;-78
2021/09/05 07:45:38;;;;;;;15.48;9.75;;;16.70;99.90;;;;;;4897343;29;38515;-79
2021/09/05 07:48:04;;;;;;;15.57;9.00;;;17.00;99.90;;;;;;4888001;29;39498;-79
2021/09/05 07:50:30;;;;;;;14.57;9.05;;;17.20;99.90;;;;;;4902564;29;36706;-78
2021/09/05 07:52:56;;;;;;;16.20;9.32;;;17.50;99.90;;;;;;4908547;28;39407;-78
2021/09/05 07:55:22;;;;;;;16.73;9.23;;;17.60;99.90;;;;;;4908230;28;38172;-78
2021/09/05 07:57:48;;;;;;;14.13;9.30;;;17.80;99.90;;;;;;4893923;29;37771;-77
2021/09/05 08:00:15;;;;;;;19.48;10.05;;;18.00;99.90;;;;;;4897772;29;36972;-78
2021/09/05 08:02:41;;;;;;;15.27;9.20;;;18.10;99.90;;;;;;4890235;29;40364;-78
2021/09/05 08:05:11;;;;;;;14.38;9.25;;;18.20;99.90;;;;;;4902160;29;39238;-77
2021/09/05 08:07:37;;;;;;;16.25;9.57;;;18.30;99.90;;;;;;4905214;29;37891;-78
2021/09/05 08:10:05;;;;;;;18.25;9.27;;;18.40;99.90;;;;;;4886871;29;37783;-76
2021/09/05 08:12:31;;;;;;;15.98;9.23;;;18.50;99.90;;;;;;4901671;29;39800;-78
2021/09/05 08:14:57;;;;;;;11.77;7.75;;;18.50;99.90;;;;;;4898922;29;38479;-77
2021/09/05 08:17:23;;;;;;;15.10;9.18;;;18.70;99.90;;;;;;4906902;28;38441;-78
2021/09/05 08:19:50;;;;;;;12.43;9.00;;;18.90;99.90;;;;;;4904710;29;35471;-77
2021/09/05 08:22:18;;;;;;;14.55;8.50;;;19.10;99.90;;;;;;4908033;28;39822;-78
2021/09/05 08:24:44;;;;;;;15.95;8.55;;;19.30;99.90;;;;;;4907507;29;39025;-78
2021/09/05 08:27:10;;;;;;;14.23;8.00;;;19.40;99.90;;;;;;4898539;29;39011;-78
2021/09/05 08:29:37;;;;;;;14.63;8.18;;;19.40;99.90;;;;;;4894257;29;36814;-77
2021/09/05 08:32:04;;;;;;;14.00;8.32;;;19.40;99.90;;;;;;4901462;29;38344;-77
2021/09/05 08:34:33;;;;;;;12.02;8.50;;;19.50;99.90;;;;;;4903797;29;37594;-78
2021/09/05 08:37:04;;;;;;;16.95;8.73;;;19.40;99.90;;;;;;4910404;28;38796;-78
2021/09/05 08:39:30;;;;;;;12.45;8.20;;;19.50;99.90;;;;;;4906933;29;46929;-78
2021/09/05 08:41:58;;;;;;;10.88;7.90;;;19.60;99.90;;;;;;4899479;29;38785;-78
2021/09/05 08:44:25;;;;;;;13.55;8.20;;;19.70;99.90;;;;;;4905052;29;38766;-78
2021/09/05 08:46:53;;;;;;;16.77;8.10;;;19.90;99.90;;;;;;4901103;29;39238;-78
2021/09/05 08:49:31;;;;;;;17.13;8.30;;;20.00;99.90;;;;;;4901703;29;38195;-77
2021/09/05 08:51:57;;;;;;;13.82;8.57;;;20.10;99.90;;;;;;4901142;29;39420;-78
2021/09/05 08:54:24;;;;;;;15.27;8.73;;;20.10;99.90;;;;;;4904076;29;38896;-78
2021/09/05 08:56:52;;;;;;;12.02;7.43;;;20.20;99.90;;;;;;4904941;29;36553;-78
2021/09/05 08:59:18;;;;;;;12.68;8.50;;;20.30;99.90;;;;;;4891568;29;37560;-78
2021/09/05 09:01:52;;;;;;;14.48;7.65;;;20.40;99.90;;;;;;4901255;29;39791;-78
2021/09/05 09:04:18;;;;;;;14.85;7.82;;;20.70;99.90;;;;;;4886699;29;38769;-78
2021/09/05 09:06:44;;;;;;;8.68;7.13;;;20.90;99.90;;;;;;4900285;28;38523;-78
2021/09/05 09:09:11;;;;;;;13.65;8.07;;;20.90;99.90;;;;;;4897759;29;39209;-78
2021/09/05 09:11:51;;;;;;;14.52;7.97;;;20.90;99.90;;;;;;4899970;28;42325;-77
2021/09/05 09:14:18;;;;;;;15.95;8.35;;;20.70;99.90;;;;;;4905610;29;38508;-77
2021/09/05 09:16:44;;;;;;;11.90;7.70;;;20.50;99.90;;;;;;4898405;29;37969;-77
2021/09/05 09:19:28;;;;;;;13.13;7.47;;;20.50;99.90;;;;;;4903023;29;37829;-78
2021/09/05 09:21:55;;;;;;;15.02;7.72;;;20.80;99.90;;;;;;4898341;28;40574;-78
2021/09/05 09:24:23;;;;;;;11.70;7.72;;;20.80;99.90;;;;;;4897017;29;39922;-77
2021/09/05 09:27:04;;;;;;;10.10;8.25;;;20.80;99.90;;;;;;4901347;29;38346;-78
2021/09/05 09:29:31;;;;;;;11.40;7.95;;;20.80;99.90;;;;;;4915903;29;47233;-78
2021/09/05 09:32:09;;;;;;;13.95;7.80;;;20.60;99.90;;;;;;4888209;29;39190;-78
2021/09/05 09:34:39;;;;;;;12.65;8.27;;;20.90;99.90;;;;;;4902076;29;48997;-77
2021/09/05 09:37:16;;;;;;;12.93;8.52;;;21.10;99.90;;;;;;4901929;29;39097;-77
2021/09/05 09:39:43;;;;;;;14.07;8.25;;;20.90;99.90;;;;;;4907015;29;35444;-78
2021/09/05 09:42:32;;;;;;;12.93;8.02;;;21.00;99.90;;;;;;4901643;29;38990;-77
2021/09/05 09:45:00;;;;;;;11.52;7.60;;;21.30;99.90;;;;;;4898148;29;38377;-78
2021/09/05 09:47:48;;;;;;;11.10;8.27;;;21.10;99.90;;;;;;4905196;29;37856;-78
2021/09/05 09:50:16;;;;;;;13.68;8.35;;;21.10;99.90;;;;;;4904271;28;37353;-78
2021/09/05 09:52:45;;;;;;;12.45;8.13;;;21.50;99.90;;;;;;4907783;29;41213;-78
2021/09/05 09:55:12;;;;;;;13.85;8.45;;;21.80;99.90;;;;;;4902648;28;38512;-78
2021/09/05 09:57:39;;;;;;;13.43;8.38;;;21.80;99.90;;;;;;4907191;29;38047;-78
2021/09/05 10:00:06;;;;;;;14.15;7.93;;;21.70;99.90;;;;;;4904723;29;37663;-78
2021/09/05 10:02:37;;;;;;;14.63;7.65;;;21.60;99.90;;;;;;4901068;29;47536;-78
2021/09/05 10:05:04;;;;;;;15.07;8.27;;;21.70;99.90;;;;;;4900011;29;38901;-77
2021/09/05 10:07:32;;;;;;;11.95;7.45;;;21.80;99.90;;;;;;4896584;29;47240;-77
2021/09/05 10:10:03;;;;;;;14.63;7.80;;;21.90;99.90;;;;;;4901503;29;37051;-79
2021/09/05 10:12:30;;;;;;;12.18;7.57;;;22.10;99.90;;;;;;4906591;28;48325;-78
2021/09/05 10:14:58;;;;;;;13.00;8.55;;;22.30;99.90;;;;;;4898060;29;38545;-78
2021/09/05 10:17:25;;;;;;;11.23;8.02;;;22.20;99.90;;;;;;4906644;29;38761;-78
2021/09/05 10:19:52;;;;;;;13.48;8.55;;;22.40;99.90;;;;;;4907757;29;37349;-78
2021/09/05 10:22:22;;;;;;;11.70;7.90;;;22.50;99.90;;;;;;4902717;29;39588;-78
2021/09/05 10:24:51;;;;;;;12.48;7.70;;;22.70;99.90;;;;;;4910179;29;40202;-80
2021/09/05 10:27:31;;;;;;;12.05;7.60;;;22.70;99.90;;;;;;4902207;29;37429;-80
2021/09/05 10:30:10;;;;;;;10.50;6.82;;;22.80;99.90;;;;;;4904999;29;37312;-81
2021/09/05 10:32:57;;;;;;;12.40;8.27;;;23.00;99.90;;;;;;4894784;29;47122;-80
2021/09/05 10:35:26;;;;;;;16.52;7.70;;;23.00;99.90;;;;;;4903124;29;40060;-80
2021/09/05 10:38:10;;;;;;;12.23;7.68;;;23.00;99.90;;;;;;4906567;29;37929;-79
2021/09/05 10:41:06;;;;;;;12.68;8.48;;;22.90;99.90;;;;;;4907292;29;47538;-80
2021/09/05 10:43:48;;;;;;;13.02;7.47;;;22.90;99.90;;;;;;4897370;29;48902;-80
2021/09/05 10:46:34;;;;;;;12.23;7.40;;;23.00;99.90;;;;;;4903514;29;38826;-80
2021/09/05 10:49:03;;;;;;;15.48;8.35;;;23.40;99.90;;;;;;4905722;29;38055;-80
2021/09/05 10:51:33;;;;;;;14.95;8.57;;;23.60;99.90;;;;;;4903993;29;48744;-80
2021/09/05 10:54:04;;;;;;;11.77;8.07;;;23.80;99.90;;;;;;4907351;29;38927;-80
2021/09/05 10:56:36;;;;;;;11.15;7.47;;;23.90;99.90;;;;;;4908639;28;48732;-80
2021/09/05 10:59:23;;;;;;;12.95;8.13;;;24.00;99.90;;;;;;4903812;29;38874;-80
2021/09/05 11:01:49;;;;;;;14.50;9.52;;;24.20;99.90;;;;;;4903713;28;48836;-80
2021/09/05 11:04:16;;;;;;;13.27;8.57;;;24.00;99.90;;;;;;4898230;29;39743;-80
2021/09/05 11:06:42;;;;;;;13.40;8.35;;;23.90;99.90;;;;;;4902665;28;39330;-80
2021/09/05 11:09:21;;;;;;;13.40;8.95;;;23.90;99.90;;;;;;4909378;29;39269;-80
2021/09/05 11:12:11;;;;;;;14.38;8.20;;;24.00;99.90;;;;;;4904992;29;37296;-80
2021/09/05 11:14:37;;;;;;;15.88;7.80;;;23.60;99.90;;;;;;4906143;29;48215;-80
2021/09/05 11:17:12;;;;;;;13.30;8.13;;;23.70;99.90;;;;;;4907302;29;38149;-80
2021/09/05 11:19:50;;;;;;;13.70;8.95;;;23.90;99.90;;;;;;4904226;29;38347;-80
2021/09/05 11:22:37;;;;;;;12.65;7.95;;;24.10;99.90;;;;;;4897887;29;37266;-81
2021/09/05 11:25:19;;;;;;;12.38;8.05;;;24.40;99.90;;;;;;4904997;29;40152;-80
2021/09/05 11:27:56;;;;;;;;;;;24.50;99.90;;;;;;4907343;29;48993;-80
2021/09/05 11:30:25;;;;;;;9.48;7.60;;;24.50;99.90;;;;;;4902346;29;39013;-81
2021/09/05 11:33:03;;;;;;;14.27;9.07;;;24.70;99.90;;;;;;4903345;29;35973;-81
2021/09/05 11:35:38;;;;;;;12.73;8.00;;;24.70;99.90;;;;;;4902694;29;48781;-80
2021/09/05 11:38:04;;;;;;;13.32;8.23;;;24.90;99.90;;;;;;4902343;29;39529;-80
2021/09/05 11:40:30;;;;;;;11.57;7.88;;;24.70;99.90;;;;;;4907141;28;39303;-81
2021/09/05 11:42:58;;;;;;;11.65;7.82;;;24.50;99.90;;;;;;4898269;29;38225;-80
2021/09/05 11:45:26;;;;;;;9.70;7.53;;;24.60;99.90;;;;;;4911700;29;38871;-78
2021/09/05 11:48:00;;;;;;;11.20;7.55;;;24.60;99.90;;;;;;4918005;28;38720;-78
2021/09/05 11:50:28;;;;;;;11.75;7.30;;;24.70;99.90;;;;;;4904045;29;38779;-77
2021/09/05 11:52:55;;;;;;;11.77;8.10;;;24.90;99.90;;;;;;4902595;29;36346;-77
2021/09/05 11:55:22;;;;;;;11.07;7.13;;;25.00;99.90;;;;;;4891099;28;38655;-78
2021/09/05 11:57:52;;;;;;;11.90;7.93;;;25.10;99.90;;;;;;4907683;29;38470;-78
2021/09/05 12:00:30;;;;;;;11.43;7.97;;;25.00;99.90;;;;;;4904079;29;37468;-78
2021/09/05 12:02:58;;;;;;;9.95;7.38;;;25.00;99.90;;;;;;4913298;29;38363;-77
2021/09/05 12:05:25;;;;;;;12.55;8.38;;;25.00;99.90;;;;;;4896569;29;37694;-77
2021/09/05 12:07:52;;;;;;;11.13;8.30;;;25.10;99.90;;;;;;4909788;29;38832;-78
2021/09/05 12:10:21;;;;;;;10.02;7.40;;;25.10;99.90;;;;;;4904969;29;37229;-78
2021/09/05 12:13:06;;;;;;;13.38;7.78;;;25.20;99.90;;;;;;4909586;28;37430;-78
2021/09/05 12:15:43;;;;;;;12.27;8.50;;;25.10;99.90;;;;;;4906863;29;48880;-77
2021/09/05 12:18:22;;;;;;;14.52;8.40;;;24.80;99.90;;;;;;4906242;28;38871;-78
2021/09/05 12:20:57;;;;;;;10.50;7.65;;;24.60;99.90;;;;;;4902530;29;37500;-78
2021/09/05 12:23:26;;;;;;;11.63;8.05;;;24.60;99.90;;;;;;4904899;29;37222;-78
2021/09/05 12:25:54;;;;;;;12.15;8.30;;;24.30;99.90;;;;;;4909490;29;38900;-79
2021/09/05 12:28:28;;;;;;;12.05;8.07;;;24.20;99.90;;;;;;4903512;28;38554;-80
2021/09/05 12:30:56;;;;;;;9.85;7.70;;;24.30;99.90;;;;;;4906186;28;38094;-79
2021/09/05 12:33:28;;;;;;;11.00;7.90;;;24.50;99.90;;;;;;4907009;29;36317;-79
2021/09/05 12:36:14;;;;;;;;;;;24.60;99.90;;;;;;4920927;29;38573;-80